sensor_id;sensor_type;location;lat;lon;timestamp;pressure;altitude;pressure_sealevel;temperature;humidity
80644;BME280;70010;60.224;24.712;2023-08-07T00:00:46;100398.37;;;21.24;61.24
80644;BME280;70010;60.224;24.712;2023-08-07T00:03:11;100397.66;;;21.38;60.20
80644;BME280;70010;60.224;24.712;2023-08-07T00:05:37;100401.99;;;19.74;64.27
80644;BME280;70010;60.224;24.712;2023-08-07T00:08:03;100390.37;;;21.29;60.71
80644;BME280;70010;60.224;24.712;2023-08-07T00:10:29;100397.46;;;19.43;65.52
80644;BME280;70010;60.224;24.712;2023-08-07T00:12:54;100399.53;;;20.33;64.44
80644;BME280;70010;60.224;24.712;2023-08-07T00:15:19;100390.98;;;21.71;59.49
80644;BME280;70010;60.224;24.712;2023-08-07T00:17:44;100393.04;;;20.06;64.88
80644;BME280;70010;60.224;24.712;2023-08-07T00:20:10;100394.32;;;20.23;64.04
80644;BME280;70010;60.224;24.712;2023-08-07T00:22:35;100384.19;;;21.82;59.40
80644;BME280;70010;60.224;24.712;2023-08-07T00:25:00;100378.21;;;21.77;59.73
80644;BME280;70010;60.224;24.712;2023-08-07T00:27:25;100383.62;;;19.94;64.45
80644;BME280;70010;60.224;24.712;2023-08-07T00:29:51;100382.01;;;20.12;64.90
80644;BME280;70010;60.224;24.712;2023-08-07T00:32:17;100382.42;;;22.23;59.00
80644;BME280;70010;60.224;24.712;2023-08-07T00:34:42;100380.23;;;20.08;64.01
80644;BME280;70010;60.224;24.712;2023-08-07T00:37:08;100393.26;;;19.68;67.38
80644;BME280;70010;60.224;24.712;2023-08-07T00:39:33;100375.36;;;20.37;65.31
80644;BME280;70010;60.224;24.712;2023-08-07T00:41:59;100382.54;;;20.94;63.15
80644;BME280;70010;60.224;24.712;2023-08-07T00:44:24;100375.30;;;22.02;59.34
80644;BME280;70010;60.224;24.712;2023-08-07T00:46:50;100371.06;;;20.56;63.50
80644;BME280;70010;60.224;24.712;2023-08-07T00:49:16;100365.52;;;21.58;60.88
80644;BME280;70010;60.224;24.712;2023-08-07T00:51:41;100368.16;;;19.42;67.13
80644;BME280;70010;60.224;24.712;2023-08-07T00:54:07;100355.80;;;21.71;60.46
80644;BME280;70010;60.224;24.712;2023-08-07T00:56:32;100351.08;;;22.39;57.53
80644;BME280;70010;60.224;24.712;2023-08-07T00:58:57;100357.15;;;21.85;59.05
80644;BME280;70010;60.224;24.712;2023-08-07T01:01:22;100353.24;;;22.03;58.10
80644;BME280;70010;60.224;24.712;2023-08-07T01:03:47;100354.12;;;20.75;61.96
80644;BME280;70010;60.224;24.712;2023-08-07T01:06:13;100351.38;;;20.74;62.06
80644;BME280;70010;60.224;24.712;2023-08-07T01:08:38;100344.82;;;20.95;61.82
80644;BME280;70010;60.224;24.712;2023-08-07T01:11:16;100349.00;;;21.41;60.44
80644;BME280;70010;60.224;24.712;2023-08-07T01:13:32;100345.61;;;20.18;63.73
80644;BME280;70010;60.224;24.712;2023-08-07T01:15:57;100341.17;;;21.25;61.36
80644;BME280;70010;60.224;24.712;2023-08-07T01:18:21;100342.96;;;20.64;62.34
80644;BME280;70010;60.224;24.712;2023-08-07T01:20:45;100342.00;;;20.36;63.13
80644;BME280;70010;60.224;24.712;2023-08-07T01:23:11;100338.39;;;20.84;61.76
80644;BME280;70010;60.224;24.712;2023-08-07T01:25:36;100339.23;;;20.61;62.20
80644;BME280;70010;60.224;24.712;2023-08-07T01:28:08;100337.35;;;21.03;61.60
80644;BME280;70010;60.224;24.712;2023-08-07T01:30:32;100332.25;;;20.89;62.03
80644;BME280;70010;60.224;24.712;2023-08-07T01:32:59;100333.77;;;19.80;64.45
80644;BME280;70010;60.224;24.712;2023-08-07T01:35:22;100332.86;;;19.83;64.08
80644;BME280;70010;60.224;24.712;2023-08-07T01:37:45;100328.53;;;20.79;62.34
80644;BME280;70010;60.224;24.712;2023-08-07T01:40:10;100319.36;;;20.37;63.11
80644;BME280;70010;60.224;24.712;2023-08-07T01:42:35;100321.99;;;21.18;60.89
80644;BME280;70010;60.224;24.712;2023-08-07T01:45:00;100318.42;;;20.97;61.31
80644;BME280;70010;60.224;24.712;2023-08-07T01:47:25;100328.01;;;18.83;66.41
80644;BME280;70010;60.224;24.712;2023-08-07T01:49:51;100317.05;;;20.83;61.92
80644;BME280;70010;60.224;24.712;2023-08-07T01:52:17;100313.88;;;21.25;60.86
80644;BME280;70010;60.224;24.712;2023-08-07T01:54:42;100303.91;;;20.93;62.09
80644;BME280;70010;60.224;24.712;2023-08-07T01:57:08;100298.87;;;21.35;60.39
80644;BME280;70010;60.224;24.712;2023-08-07T01:59:33;100299.39;;;18.34;69.36
80644;BME280;70010;60.224;24.712;2023-08-07T02:01:59;100293.35;;;18.66;69.06
80644;BME280;70010;60.224;24.712;2023-08-07T02:04:24;100293.42;;;18.94;68.82
80644;BME280;70010;60.224;24.712;2023-08-07T02:06:50;100284.75;;;21.38;60.80
80644;BME280;70010;60.224;24.712;2023-08-07T02:09:15;100289.55;;;18.45;69.50
80644;BME280;70010;60.224;24.712;2023-08-07T02:11:41;100292.03;;;19.40;66.98
80644;BME280;70010;60.224;24.712;2023-08-07T02:14:06;100284.77;;;21.33;60.48
80644;BME280;70010;60.224;24.712;2023-08-07T02:16:31;100277.37;;;20.52;62.63
80644;BME280;70010;60.224;24.712;2023-08-07T02:18:57;100270.35;;;19.96;64.16
80644;BME280;70010;60.224;24.712;2023-08-07T02:21:23;100264.15;;;22.32;57.95
80644;BME280;70010;60.224;24.712;2023-08-07T02:23:48;100270.24;;;20.30;62.82
80644;BME280;70010;60.224;24.712;2023-08-07T02:26:14;100269.73;;;19.37;65.62
80644;BME280;70010;60.224;24.712;2023-08-07T02:28:39;100262.83;;;21.53;59.69
80644;BME280;70010;60.224;24.712;2023-08-07T02:31:05;100260.99;;;21.52;58.94
80644;BME280;70010;60.224;24.712;2023-08-07T02:33:30;100254.98;;;22.54;56.54
80644;BME280;70010;60.224;24.712;2023-08-07T02:35:56;100255.27;;;21.54;58.79
80644;BME280;70010;60.224;24.712;2023-08-07T02:38:21;100249.95;;;20.59;62.14
80644;BME280;70010;60.224;24.712;2023-08-07T02:40:46;100251.27;;;19.03;66.85
80644;BME280;70010;60.224;24.712;2023-08-07T02:43:12;100244.98;;;21.29;60.13
80644;BME280;70010;60.224;24.712;2023-08-07T02:45:38;100235.04;;;19.89;65.10
80644;BME280;70010;60.224;24.712;2023-08-07T02:48:03;100236.92;;;20.15;63.63
80644;BME280;70010;60.224;24.712;2023-08-07T02:50:28;100239.36;;;21.83;58.26
80644;BME280;70010;60.224;24.712;2023-08-07T02:52:54;100240.55;;;20.07;64.25
80644;BME280;70010;60.224;24.712;2023-08-07T02:55:20;100243.57;;;19.68;65.02
80644;BME280;70010;60.224;24.712;2023-08-07T02:57:45;100239.14;;;21.94;58.81
80644;BME280;70010;60.224;24.712;2023-08-07T03:00:11;100243.80;;;21.57;59.24
80644;BME280;70010;60.224;24.712;2023-08-07T03:02:36;100243.61;;;20.98;61.74
80644;BME280;70010;60.224;24.712;2023-08-07T03:05:02;100240.22;;;20.78;61.79
80644;BME280;70010;60.224;24.712;2023-08-07T03:07:27;100232.99;;;20.80;62.96
80644;BME280;70010;60.224;24.712;2023-08-07T03:09:52;100229.82;;;21.11;61.64
80644;BME280;70010;60.224;24.712;2023-08-07T03:12:18;100227.28;;;20.76;61.22
80644;BME280;70010;60.224;24.712;2023-08-07T03:14:44;100229.76;;;22.14;58.30
80644;BME280;70010;60.224;24.712;2023-08-07T03:17:09;100232.09;;;21.33;59.59
80644;BME280;70010;60.224;24.712;2023-08-07T03:19:35;100234.66;;;19.03;66.21
80644;BME280;70010;60.224;24.712;2023-08-07T03:22:01;100234.26;;;21.14;61.54
80644;BME280;70010;60.224;24.712;2023-08-07T03:24:26;100232.17;;;19.31;67.54
80644;BME280;70010;60.224;24.712;2023-08-07T03:26:51;100229.08;;;19.34;67.41
80644;BME280;70010;60.224;24.712;2023-08-07T03:29:16;100226.74;;;19.10;68.02
80644;BME280;70010;60.224;24.712;2023-08-07T03:31:42;100223.96;;;21.48;60.18
80644;BME280;70010;60.224;24.712;2023-08-07T03:34:07;100219.68;;;22.11;58.53
80644;BME280;70010;60.224;24.712;2023-08-07T03:36:32;100224.00;;;21.34;60.27
80644;BME280;70010;60.224;24.712;2023-08-07T03:38:57;100226.44;;;21.01;61.13
80644;BME280;70010;60.224;24.712;2023-08-07T03:41:23;100225.58;;;22.62;57.25
80644;BME280;70010;60.224;24.712;2023-08-07T03:43:48;100221.73;;;20.41;62.19
80644;BME280;70010;60.224;24.712;2023-08-07T03:46:14;100215.26;;;19.93;65.17
80644;BME280;70010;60.224;24.712;2023-08-07T03:48:40;100213.47;;;21.65;60.27
80644;BME280;70010;60.224;24.712;2023-08-07T03:51:07;100216.35;;;23.15;55.44
80644;BME280;70010;60.224;24.712;2023-08-07T03:53:31;100207.99;;;22.38;56.08
80644;BME280;70010;60.224;24.712;2023-08-07T03:55:56;100216.65;;;19.92;63.66
80644;BME280;70010;60.224;24.712;2023-08-07T03:58:22;100213.50;;;21.86;59.56
80644;BME280;70010;60.224;24.712;2023-08-07T04:00:48;100213.88;;;20.87;61.97
80644;BME280;70010;60.224;24.712;2023-08-07T04:03:13;100216.08;;;20.67;62.29
80644;BME280;70010;60.224;24.712;2023-08-07T04:05:38;100209.28;;;22.67;57.65
80644;BME280;70010;60.224;24.712;2023-08-07T04:08:04;100217.09;;;21.02;60.13
80644;BME280;70010;60.224;24.712;2023-08-07T04:10:30;100218.32;;;20.70;61.51
80644;BME280;70010;60.224;24.712;2023-08-07T04:12:55;100212.73;;;19.97;64.39
80644;BME280;70010;60.224;24.712;2023-08-07T04:15:21;100211.38;;;21.62;59.51
80644;BME280;70010;60.224;24.712;2023-08-07T04:17:46;100207.56;;;22.35;57.24
80644;BME280;70010;60.224;24.712;2023-08-07T04:20:12;100212.72;;;20.23;62.75
80644;BME280;70010;60.224;24.712;2023-08-07T04:22:37;100214.75;;;21.77;58.48
80644;BME280;70010;60.224;24.712;2023-08-07T04:25:03;100211.95;;;22.10;58.80
80644;BME280;70010;60.224;24.712;2023-08-07T04:27:28;100210.35;;;23.46;54.42
80644;BME280;70010;60.224;24.712;2023-08-07T04:29:54;100207.33;;;20.82;59.93
80644;BME280;70010;60.224;24.712;2023-08-07T04:32:20;100200.28;;;22.10;56.91
80644;BME280;70010;60.224;24.712;2023-08-07T04:34:45;100202.60;;;22.51;55.32
80644;BME280;70010;60.224;24.712;2023-08-07T04:37:11;100196.09;;;21.40;58.73
80644;BME280;70010;60.224;24.712;2023-08-07T04:39:36;100197.67;;;23.86;53.32
80644;BME280;70010;60.224;24.712;2023-08-07T04:42:01;100201.79;;;22.56;55.10
80644;BME280;70010;60.224;24.712;2023-08-07T04:44:26;100199.84;;;22.73;54.86
80644;BME280;70010;60.224;24.712;2023-08-07T04:46:52;100196.28;;;22.79;55.47
80644;BME280;70010;60.224;24.712;2023-08-07T04:49:17;100196.49;;;21.20;59.31
80644;BME280;70010;60.224;24.712;2023-08-07T04:51:43;100191.61;;;21.69;58.69
80644;BME280;70010;60.224;24.712;2023-08-07T04:54:08;100196.06;;;22.12;57.04
80644;BME280;70010;60.224;24.712;2023-08-07T04:56:34;100201.60;;;21.31;59.80
80644;BME280;70010;60.224;24.712;2023-08-07T04:58:59;100191.76;;;22.07;57.98
80644;BME280;70010;60.224;24.712;2023-08-07T05:01:24;100200.44;;;20.59;61.44
80644;BME280;70010;60.224;24.712;2023-08-07T05:03:50;100195.99;;;21.80;57.99
80644;BME280;70010;60.224;24.712;2023-08-07T05:06:16;100194.61;;;23.57;54.33
80644;BME280;70010;60.224;24.712;2023-08-07T05:08:41;100197.70;;;22.50;54.88
80644;BME280;70010;60.224;24.712;2023-08-07T05:11:07;100194.52;;;21.81;57.22
80644;BME280;70010;60.224;24.712;2023-08-07T05:13:32;100190.81;;;21.71;59.16
80644;BME280;70010;60.224;24.712;2023-08-07T05:15:58;100185.36;;;20.80;61.97
80644;BME280;70010;60.224;24.712;2023-08-07T05:18:24;100183.62;;;22.09;57.98
80644;BME280;70010;60.224;24.712;2023-08-07T05:20:49;100179.72;;;21.16;60.22
80644;BME280;70010;60.224;24.712;2023-08-07T05:23:14;100180.13;;;22.17;57.43
80644;BME280;70010;60.224;24.712;2023-08-07T05:25:39;100179.31;;;23.00;55.58
80644;BME280;70010;60.224;24.712;2023-08-07T05:28:05;100177.99;;;23.08;54.06
80644;BME280;70010;60.224;24.712;2023-08-07T05:30:30;100168.99;;;21.63;58.98
80644;BME280;70010;60.224;24.712;2023-08-07T05:32:56;100169.59;;;20.58;62.56
80644;BME280;70010;60.224;24.712;2023-08-07T05:35:21;100175.14;;;21.98;58.31
80644;BME280;70010;60.224;24.712;2023-08-07T05:37:47;100177.63;;;22.57;56.63
80644;BME280;70010;60.224;24.712;2023-08-07T05:40:12;100176.16;;;21.76;57.47
80644;BME280;70010;60.224;24.712;2023-08-07T05:42:37;100176.87;;;23.50;53.58
80644;BME280;70010;60.224;24.712;2023-08-07T05:45:03;100175.41;;;23.06;54.49
80644;BME280;70010;60.224;24.712;2023-08-07T05:47:28;100167.46;;;23.96;51.94
80644;BME280;70010;60.224;24.712;2023-08-07T05:49:53;100178.41;;;22.74;55.21
80644;BME280;70010;60.224;24.712;2023-08-07T05:52:19;100161.55;;;24.41;51.12
80644;BME280;70010;60.224;24.712;2023-08-07T05:54:45;100169.96;;;21.90;57.94
80644;BME280;70010;60.224;24.712;2023-08-07T05:57:10;100170.12;;;21.74;58.33
80644;BME280;70010;60.224;24.712;2023-08-07T05:59:36;100166.60;;;23.45;53.54
80644;BME280;70010;60.224;24.712;2023-08-07T06:02:01;100168.13;;;21.08;59.25
80644;BME280;70010;60.224;24.712;2023-08-07T06:04:26;100164.57;;;21.68;57.97
80644;BME280;70010;60.224;24.712;2023-08-07T06:06:52;100161.52;;;21.91;57.84
80644;BME280;70010;60.224;24.712;2023-08-07T06:09:18;100162.03;;;22.59;56.32
80644;BME280;70010;60.224;24.712;2023-08-07T06:11:43;100158.15;;;24.13;52.32
80644;BME280;70010;60.224;24.712;2023-08-07T06:14:09;100161.25;;;22.67;54.52
80644;BME280;70010;60.224;24.712;2023-08-07T06:16:35;100161.53;;;23.19;53.55
80644;BME280;70010;60.224;24.712;2023-08-07T06:19:00;100162.33;;;23.69;52.59
80644;BME280;70010;60.224;24.712;2023-08-07T06:21:26;100149.42;;;23.60;53.30
80644;BME280;70010;60.224;24.712;2023-08-07T06:23:52;100146.76;;;24.58;50.86
80644;BME280;70010;60.224;24.712;2023-08-07T06:26:18;100144.24;;;23.68;52.32
80644;BME280;70010;60.224;24.712;2023-08-07T06:28:43;100141.12;;;24.18;51.72
80644;BME280;70010;60.224;24.712;2023-08-07T06:31:10;100146.29;;;23.34;54.54
80644;BME280;70010;60.224;24.712;2023-08-07T06:33:34;100141.52;;;22.32;58.42
80644;BME280;70010;60.224;24.712;2023-08-07T06:35:59;100142.76;;;22.06;58.49
80644;BME280;70010;60.224;24.712;2023-08-07T06:38:24;100133.59;;;24.36;52.09
80644;BME280;70010;60.224;24.712;2023-08-07T06:40:49;100131.99;;;22.78;55.33
80644;BME280;70010;60.224;24.712;2023-08-07T06:43:14;100125.98;;;22.45;56.58
80644;BME280;70010;60.224;24.712;2023-08-07T06:45:39;100124.76;;;23.09;55.34
80644;BME280;70010;60.224;24.712;2023-08-07T06:48:05;100121.36;;;22.26;56.77
80644;BME280;70010;60.224;24.712;2023-08-07T06:50:30;100108.41;;;24.11;52.68
80644;BME280;70010;60.224;24.712;2023-08-07T06:52:56;100114.37;;;22.18;56.78
80644;BME280;70010;60.224;24.712;2023-08-07T06:55:22;100115.19;;;23.53;53.49
80644;BME280;70010;60.224;24.712;2023-08-07T06:57:47;100116.78;;;23.31;54.77
80644;BME280;70010;60.224;24.712;2023-08-07T07:00:13;100115.16;;;22.26;57.22
80644;BME280;70010;60.224;24.712;2023-08-07T07:02:38;100106.81;;;23.82;54.08
80644;BME280;70010;60.224;24.712;2023-08-07T07:05:04;100105.11;;;23.43;53.19
80644;BME280;70010;60.224;24.712;2023-08-07T07:07:29;100105.85;;;22.73;55.02
80644;BME280;70010;60.224;24.712;2023-08-07T07:09:55;100115.11;;;22.93;55.63
80644;BME280;70010;60.224;24.712;2023-08-07T07:12:20;100102.58;;;24.38;51.76
80644;BME280;70010;60.224;24.712;2023-08-07T07:14:45;100105.20;;;24.33;51.16
80644;BME280;70010;60.224;24.712;2023-08-07T07:17:11;100104.28;;;23.56;53.10
80644;BME280;70010;60.224;24.712;2023-08-07T07:19:37;100104.48;;;25.42;49.61
80644;BME280;70010;60.224;24.712;2023-08-07T07:22:02;100106.06;;;25.32;49.31
80644;BME280;70010;60.224;24.712;2023-08-07T07:24:27;100105.57;;;24.81;49.91
80644;BME280;70010;60.224;24.712;2023-08-07T07:26:53;100106.10;;;23.44;53.52
80644;BME280;70010;60.224;24.712;2023-08-07T07:29:19;100112.71;;;23.05;54.32
80644;BME280;70010;60.224;24.712;2023-08-07T07:31:44;100110.11;;;24.11;52.00
80644;BME280;70010;60.224;24.712;2023-08-07T07:34:09;100108.24;;;23.22;54.73
80644;BME280;70010;60.224;24.712;2023-08-07T07:36:35;100106.05;;;24.15;52.58
80644;BME280;70010;60.224;24.712;2023-08-07T07:39:00;100106.32;;;23.34;54.73
80644;BME280;70010;60.224;24.712;2023-08-07T07:41:25;100101.21;;;23.11;55.03
80644;BME280;70010;60.224;24.712;2023-08-07T07:43:51;100110.22;;;22.73;56.13
80644;BME280;70010;60.224;24.712;2023-08-07T07:46:16;100104.77;;;22.74;55.88
80644;BME280;70010;60.224;24.712;2023-08-07T07:48:41;100096.37;;;22.27;58.43
80644;BME280;70010;60.224;24.712;2023-08-07T07:51:06;100094.47;;;23.15;55.84
80644;BME280;70010;60.224;24.712;2023-08-07T07:53:32;100093.18;;;23.75;53.99
80644;BME280;70010;60.224;24.712;2023-08-07T07:55:57;100094.81;;;24.23;52.59
80644;BME280;70010;60.224;24.712;2023-08-07T07:58:23;100089.24;;;24.71;51.30
80644;BME280;70010;60.224;24.712;2023-08-07T08:00:48;100084.42;;;24.34;51.82
80644;BME280;70010;60.224;24.712;2023-08-07T08:03:13;100083.88;;;25.95;48.89
80644;BME280;70010;60.224;24.712;2023-08-07T08:05:39;100083.81;;;25.42;49.79
80644;BME280;70010;60.224;24.712;2023-08-07T08:08:05;100083.34;;;26.15;48.20
80644;BME280;70010;60.224;24.712;2023-08-07T08:10:30;100090.98;;;26.02;47.01
80644;BME280;70010;60.224;24.712;2023-08-07T08:12:56;100085.30;;;27.50;45.14
80644;BME280;70010;60.224;24.712;2023-08-07T08:15:21;100077.27;;;27.69;43.91
80644;BME280;70010;60.224;24.712;2023-08-07T08:17:47;100072.24;;;25.92;47.29
80644;BME280;70010;60.224;24.712;2023-08-07T08:20:13;100074.25;;;27.44;44.66
80644;BME280;70010;60.224;24.712;2023-08-07T08:22:38;100070.41;;;25.83;47.60
80644;BME280;70010;60.224;24.712;2023-08-07T08:25:04;100059.18;;;27.89;44.09
80644;BME280;70010;60.224;24.712;2023-08-07T08:27:29;100062.06;;;26.05;46.88
80644;BME280;70010;60.224;24.712;2023-08-07T08:29:55;100069.58;;;26.87;45.44
80644;BME280;70010;60.224;24.712;2023-08-07T08:32:20;100064.24;;;26.05;47.66
80644;BME280;70010;60.224;24.712;2023-08-07T08:34:45;100074.57;;;26.55;45.97
80644;BME280;70010;60.224;24.712;2023-08-07T08:37:11;100060.69;;;27.80;44.05
80644;BME280;70010;60.224;24.712;2023-08-07T08:39:37;100068.56;;;26.79;45.40
80644;BME280;70010;60.224;24.712;2023-08-07T08:42:02;100067.78;;;26.10;46.76
80644;BME280;70010;60.224;24.712;2023-08-07T08:44:29;100068.56;;;25.75;47.59
80644;BME280;70010;60.224;24.712;2023-08-07T08:46:53;100067.12;;;27.71;44.09
80644;BME280;70010;60.224;24.712;2023-08-07T08:49:23;100071.83;;;27.02;45.18
80644;BME280;70010;60.224;24.712;2023-08-07T08:51:44;100074.41;;;25.98;47.27
80644;BME280;70010;60.224;24.712;2023-08-07T08:54:09;100074.95;;;25.78;48.09
80644;BME280;70010;60.224;24.712;2023-08-07T08:56:36;100075.36;;;26.94;46.01
80644;BME280;70010;60.224;24.712;2023-08-07T08:59:01;100072.38;;;28.84;42.22
80644;BME280;70010;60.224;24.712;2023-08-07T09:01:27;100073.13;;;27.32;45.27
80644;BME280;70010;60.224;24.712;2023-08-07T09:03:53;100081.77;;;25.35;49.36
80644;BME280;70010;60.224;24.712;2023-08-07T09:06:18;100078.92;;;25.74;49.32
80644;BME280;70010;60.224;24.712;2023-08-07T09:08:43;100084.30;;;27.72;45.05
80644;BME280;70010;60.224;24.712;2023-08-07T09:11:10;100081.14;;;25.98;48.27
80644;BME280;70010;60.224;24.712;2023-08-07T09:13:36;100081.15;;;28.73;43.47
80644;BME280;70010;60.224;24.712;2023-08-07T09:16:00;100081.85;;;27.95;43.73
80644;BME280;70010;60.224;24.712;2023-08-07T09:18:25;100083.92;;;26.88;46.07
80644;BME280;70010;60.224;24.712;2023-08-07T09:20:51;100082.71;;;27.31;44.89
80644;BME280;70010;60.224;24.712;2023-08-07T09:23:16;100082.39;;;27.36;44.10
80644;BME280;70010;60.224;24.712;2023-08-07T09:25:42;100079.09;;;27.59;43.67
80644;BME280;70010;60.224;24.712;2023-08-07T09:28:07;100070.47;;;29.77;40.35
80644;BME280;70010;60.224;24.712;2023-08-07T09:30:34;100078.46;;;27.62;44.60
80644;BME280;70010;60.224;24.712;2023-08-07T09:32:57;100071.97;;;27.73;43.82
80644;BME280;70010;60.224;24.712;2023-08-07T09:35:23;100064.39;;;28.35;43.39
80644;BME280;70010;60.224;24.712;2023-08-07T09:37:48;100060.65;;;30.17;39.94
80644;BME280;70010;60.224;24.712;2023-08-07T09:40:13;100055.36;;;27.11;44.57
80644;BME280;70010;60.224;24.712;2023-08-07T09:42:39;100060.14;;;29.67;40.24
80644;BME280;70010;60.224;24.712;2023-08-07T09:47:29;100057.97;;;28.35;43.06
80644;BME280;70010;60.224;24.712;2023-08-07T09:49:55;100052.12;;;29.97;40.13
80644;BME280;70010;60.224;24.712;2023-08-07T09:52:21;100047.55;;;31.16;37.42
80644;BME280;70010;60.224;24.712;2023-08-07T09:54:46;100037.42;;;29.30;40.80
80644;BME280;70010;60.224;24.712;2023-08-07T09:57:11;100039.35;;;29.72;40.23
80644;BME280;70010;60.224;24.712;2023-08-07T09:59:37;100046.68;;;28.01;43.09
80644;BME280;70010;60.224;24.712;2023-08-07T10:02:04;100037.73;;;28.90;41.70
80644;BME280;70010;60.224;24.712;2023-08-07T10:04:29;100034.49;;;29.36;40.66
80644;BME280;70010;60.224;24.712;2023-08-07T10:06:54;100041.16;;;29.69;40.22
80644;BME280;70010;60.224;24.712;2023-08-07T10:09:20;100034.17;;;27.70;43.41
80644;BME280;70010;60.224;24.712;2023-08-07T10:11:45;100027.67;;;28.75;41.78
80644;BME280;70010;60.224;24.712;2023-08-07T10:14:12;100029.65;;;29.10;41.08
80644;BME280;70010;60.224;24.712;2023-08-07T10:16:36;100027.09;;;30.49;39.27
80644;BME280;70010;60.224;24.712;2023-08-07T10:19:01;100018.56;;;30.59;38.61
80644;BME280;70010;60.224;24.712;2023-08-07T10:21:27;100022.04;;;30.15;39.07
80644;BME280;70010;60.224;24.712;2023-08-07T10:23:53;100015.65;;;30.19;38.75
80644;BME280;70010;60.224;24.712;2023-08-07T10:26:17;99994.14;;;28.01;43.37
80644;BME280;70010;60.224;24.712;2023-08-07T10:28:43;100012.81;;;29.10;41.50
80644;BME280;70010;60.224;24.712;2023-08-07T10:31:09;100016.01;;;29.62;40.26
80644;BME280;70010;60.224;24.712;2023-08-07T10:33:33;100007.42;;;30.33;38.84
80644;BME280;70010;60.224;24.712;2023-08-07T10:35:58;100008.27;;;32.27;36.62
80644;BME280;70010;60.224;24.712;2023-08-07T10:38:24;99999.93;;;29.89;40.61
80644;BME280;70010;60.224;24.712;2023-08-07T10:40:59;100003.04;;;31.47;37.56
80644;BME280;70010;60.224;24.712;2023-08-07T10:43:18;99995.57;;;29.68;40.68
80644;BME280;70010;60.224;24.712;2023-08-07T10:45:40;99984.80;;;30.19;39.86
80644;BME280;70010;60.224;24.712;2023-08-07T10:48:06;99994.34;;;30.83;38.43
80644;BME280;70010;60.224;24.712;2023-08-07T10:50:32;99994.74;;;29.98;39.44
80644;BME280;70010;60.224;24.712;2023-08-07T10:53:00;99993.69;;;29.83;39.72
80644;BME280;70010;60.224;24.712;2023-08-07T10:55:22;99989.19;;;32.28;36.42
80644;BME280;70010;60.224;24.712;2023-08-07T10:57:47;99989.98;;;29.91;39.96
80644;BME280;70010;60.224;24.712;2023-08-07T11:00:13;99988.00;;;29.15;41.62
80644;BME280;70010;60.224;24.712;2023-08-07T11:02:41;99982.85;;;31.90;37.00
80644;BME280;70010;60.224;24.712;2023-08-07T11:05:04;99982.57;;;29.82;40.69
80644;BME280;70010;60.224;24.712;2023-08-07T11:07:30;99977.99;;;31.12;37.44
80644;BME280;70010;60.224;24.712;2023-08-07T11:09:56;99978.40;;;30.95;37.78
80644;BME280;70010;60.224;24.712;2023-08-07T11:12:21;99974.80;;;30.66;38.50
80644;BME280;70010;60.224;24.712;2023-08-07T11:14:46;99979.26;;;30.96;38.27
80644;BME280;70010;60.224;24.712;2023-08-07T11:17:12;99972.94;;;31.72;36.36
80644;BME280;70010;60.224;24.712;2023-08-07T11:19:37;99972.43;;;33.86;33.72
80644;BME280;70010;60.224;24.712;2023-08-07T11:22:03;99971.53;;;34.29;33.49
80644;BME280;70010;60.224;24.712;2023-08-07T11:24:29;99969.19;;;35.23;31.79
80644;BME280;70010;60.224;24.712;2023-08-07T11:26:53;99965.92;;;31.60;36.13
80644;BME280;70010;60.224;24.712;2023-08-07T11:29:19;99961.10;;;32.24;36.43
80644;BME280;70010;60.224;24.712;2023-08-07T11:31:45;99966.94;;;30.79;38.18
80644;BME280;70010;60.224;24.712;2023-08-07T11:34:11;99961.96;;;30.59;38.65
80644;BME280;70010;60.224;24.712;2023-08-07T11:36:41;99963.92;;;31.24;37.52
80644;BME280;70010;60.224;24.712;2023-08-07T11:39:01;99949.19;;;33.92;33.84
80644;BME280;70010;60.224;24.712;2023-08-07T11:41:26;99953.23;;;33.29;33.99
80644;BME280;70010;60.224;24.712;2023-08-07T11:43:52;99951.07;;;33.55;33.92
80644;BME280;70010;60.224;24.712;2023-08-07T11:46:18;99943.56;;;33.73;33.74
80644;BME280;70010;60.224;24.712;2023-08-07T11:48:43;99951.66;;;35.23;31.55
80644;BME280;70010;60.224;24.712;2023-08-07T11:51:09;99939.14;;;34.90;31.69
80644;BME280;70010;60.224;24.712;2023-08-07T11:53:35;99937.39;;;34.58;32.09
80644;BME280;70010;60.224;24.712;2023-08-07T11:56:01;99932.08;;;32.08;36.11
80644;BME280;70010;60.224;24.712;2023-08-07T11:58:26;99931.39;;;31.80;36.77
80644;BME280;70010;60.224;24.712;2023-08-07T12:00:50;99933.47;;;34.89;32.33
80644;BME280;70010;60.224;24.712;2023-08-07T12:03:24;99943.11;;;32.98;34.00
80644;BME280;70010;60.224;24.712;2023-08-07T12:05:41;99941.46;;;31.37;37.22
80644;BME280;70010;60.224;24.712;2023-08-07T12:08:07;99918.32;;;32.86;35.28
80644;BME280;70010;60.224;24.712;2023-08-07T12:10:32;99925.57;;;31.85;36.68
80644;BME280;70010;60.224;24.712;2023-08-07T12:12:59;99922.01;;;35.29;31.82
80644;BME280;70010;60.224;24.712;2023-08-07T12:15:23;99921.64;;;34.59;32.09
80644;BME280;70010;60.224;24.712;2023-08-07T12:17:48;99909.26;;;34.98;32.13
80644;BME280;70010;60.224;24.712;2023-08-07T12:20:15;99913.80;;;34.29;32.97
80644;BME280;70010;60.224;24.712;2023-08-07T12:22:38;99907.29;;;32.64;34.66
80644;BME280;70010;60.224;24.712;2023-08-07T12:25:05;99914.65;;;33.86;33.03
80644;BME280;70010;60.224;24.712;2023-08-07T12:27:30;99906.08;;;33.32;33.59
80644;BME280;70010;60.224;24.712;2023-08-07T12:29:55;99907.44;;;35.32;31.06
80644;BME280;70010;60.224;24.712;2023-08-07T12:32:20;99902.22;;;35.60;30.74